العودة   :: Flying Way :: > ._][_ سـاحة المطـار والطائرات Airport and Aircraft's yard _][_. > السلامة الجوية Flight Safety
تحديث الصفحة [أخبـار] طائرة الخطوط السعودية المتجهة لنيويورك تعود أدراجها إلى مطار الملك عبدالعزيز بعد الاشتباه في احتكاك ذيلها بأرضية المطار
الملاحظات

السلامة الجوية Flight Safety   متابعة أخبار حوادث الطيران وتحليل المعلومات التي أدت إليها. راجع فهرس قسم  السلامة الجوية

أدوات الموضوع إبحث في الموضوع
الصورة الرمزية محمد احمد عسيري
Flying Way
قديم 10-12-2017, 09:32 AM   رقم المشاركة : [ 1 ]   
مشاهدة ملفه الشخصي
 
 
 
تم شكره 4,269 مرة في 2,378 مشاركة
محمد احمد عسيري يستحق الثقة والتقديرمحمد احمد عسيري يستحق الثقة والتقديرمحمد احمد عسيري يستحق الثقة والتقديرمحمد احمد عسيري يستحق الثقة والتقديرمحمد احمد عسيري يستحق الثقة والتقديرمحمد احمد عسيري يستحق الثقة والتقديرمحمد احمد عسيري يستحق الثقة والتقديرمحمد احمد عسيري يستحق الثقة والتقديرمحمد احمد عسيري يستحق الثقة والتقديرمحمد احمد عسيري يستحق الثقة والتقديرمحمد احمد عسيري يستحق الثقة والتقدير
معدل تقييم المستوى: 14349
Exclamation طائرة الخطوط السعودية المتجهة لنيويورك تعود أدراجها إلى مطار الملك عبدالعزيز بعد الاشتباه في احتكاك ذيلها بأرضية المطار

تمكنت طائرة شركة الخطوط الجوية السعودية المتجهة إلى مطار جون كينيدي بالولايات المتحدة الأمريكية، من العودة مجدداً إلى مطار الملك عبدالعزيز الدولي بجدة والهبوط بسلام، بعدما تعرضت لمشكلات عند إقلاعها صباح امس السبت.

وأوضحت الشركة في بيان أنه أثناء إقلاع رحلة الخطوط السعودية رقم (SV21) من جدة متجهة إلى نيويورك، اشتبه قائد الطائرة أنه ربما حدث احتكاك لذيل الطائرة مع أرضية المطار.

وأضافت أنه عملاً بالإجراءات الاحترازية المتبعة في مثل هذه الحالات، عادت الطائرة إلى مطار الملك عبدالعزيز بجدة، بعد أن تم إفراغ الكمية المناسبة من الوقود التي تسمح بهبوط الطائرة.

وأشارت إلى أن الفحص أظهر أن بدن الطائرة لم يتعرض لأي أضرار، كما تم استبدال جهاز الاستشعار "sensor"، واستبدال الطائرة وتحويل المسافرين إليها حيث واصلوا رحلتهم الى نيويورك.

https://akhbaar24.argaam.com/article...هبوط-بمطار-جدة

اقتباس: كما تم استبدال جهاز الاستشعار "sensor"، واستبدال الطائرة وتحويل المسافرين إليها حيث واصلوا رحلتهم الى نيويورك.

اسمه tail skid
في الطائرات الطويلة والقريبة من الارض نلاحظ وجود قطعة على ذيل الطائرة اسمها tail skid

ووظيفته حماية هيكل الطائرة في حالة احتكاكها بالمدرج اثناء الاقلاع


والصور توضح أكثر






بالصورة هذا اختبار طائرة A340-600 اثناء السرعة المنخفضة عند الاقلاع


3 أعضاء قالوا شكراً لـ محمد احمد عسيري على المشاركة المفيدة:
أبو إبراهيم (10-12-2017), alzaiem (11-12-2017), عاشق A380 (10-12-2017)
قديم 10-12-2017, 10:03 PM   رقم المشاركة : [ 2 ]   
محمد احمد عسيري
Flying Way
الصورة الرمزية محمد احمد عسيري
Exclamation رد: طائرة الخطوط السعودية المتجهة لنيويورك تعود أدراجها إلى مطار الملك عبدالعزيز بعد الاشتباه في احتكاك ذيلها بأرضية الم


Incident: Saudia B773 at Jeddah on Dec 9th 2017, tail strike indication


A Saudi Arabian Airlines Boeing 777-300, registration HZ-AK40 performing flight SV-21 from Jeddah (Saudi Arabia) to New York JFK,NY (USA), was in the initial climb out of Jeddah's runway 34C when the crew stopped the climb at FL060 due to a tail strike indication, dumped fuel and returned to Jeddah for a safe landing on runway 34R about one hour after departure.

A replacement Boeing 777-300 registration HZ-AK38 reached New York with a delay of 7 hours.

The airline reported an inspection of the occurrence airframe did not reveal any hull damage, however, the tail sensor needed to be replaced.

The occurrence aircraft returned to service about 22 hours after landing back.


Metars:
OEJN 090600Z 06006KT 4000 DU SKC 25/03 Q1016 NOSIG=
OEJN 090500Z 06006KT 5000 DU SKC 24/02 Q1015 NOSIG=
OEJN 090400Z 07007KT 6000 SKC 24/03 Q1015 NOSIG=
OEJN 090300Z 06007KT 8000 SKC 24/02 Q1013 NOSIG=
OEJN 090200Z 06008KT 8000 SKC 24/02 Q1013 NOSIG=
OEJN 090100Z 06008KT 8000 SKC 24/02 Q1013 NOSIG=

http://avherald.com/h?article=4b2257dc&opt=0
________________________________________________
الطائرة البديلة

Boeing 777-3FG/ER
HZ-AK38
  إقتباس
الأعضاء الذين قالوا شكراً لـ محمد احمد عسيري على المشاركة المفيدة:
alzaiem (11-12-2017)
إضافة رد

«     مصرع شخصين وإصابة 2 آخرين إثر تحطم طائرة فى سان دييجو   |    تحطم طائرة F16 تابعة لسلاح الجو الأردني ونجاة طاقمها    »


الذين يشاهدون محتوى الموضوع الآن : 1 ( الأعضاء 0 والزوار 1)
 
أدوات الموضوع إبحث في الموضوع
إبحث في الموضوع:

البحث المتقدم

الانتقال السريع

المواضيع المتشابهه
الموضوع كاتب الموضوع المنتدى مشاركات آخر مشاركة
[أخبـار] طائرة الخطوط الجزائرية تعود أدراجها إلى المطار بسبب اصطدام الطيور واحداث ضرر بالمحرك محمد احمد عسيري السلامة الجوية Flight Safety 1 23-01-2018 06:04 PM
مدير عام مطار الملك عبدالعزيز بجدة يقود ٢٠٠ موظف من منسوبي المطار لتنظيف ساحة المطار من الأجسام الغريبة Flynas المطارات ( أخبار وإستفسارات ) Airports News & Comments 1 20-04-2016 06:44 PM
أخذ بصمات ركاب طائرة المصرية المتجهة لنيويورك لمعرفة صاحب عبارات التهديد pilot A380 المقالات الصحفية Rumours &News 2 16-06-2013 04:32 PM
الخطوط السعودية تزيد عدد رحلاتها من وإلى مطار الملك عبدالله بن عبدالعزيز بجازان الكابتن دحوم المقالات الصحفية Rumours &News 0 15-12-2011 11:50 AM
بسبب عطب في مهبط مطار بنغازي إحدى رحلات الخطوط الليبية تعود أدراجها إلى طرابلس عاشق A380 السلامة الجوية Flight Safety 1 27-09-2010 08:55 AM

الساعة الآن 02:39 PM.
Powered by vBulletin® Version 3.8.9
Copyright ©2000 - 2018, vBulletin Solutions, Inc.
حق العلم والمعرفة يعادل حق الحياة للأنسان - لذا نحن كمسؤلين في الشبكة متنازلون عن جميع الحقوق
All trademarks and copyrights held by respective owners. Member comments are owned by the poster.
خط الطيران 2004-2018